Time;durP1;ratioP1;P1;durP2;ratioP2;P2;SDS_P1;SDS_P2;PMS_P1;PMS_P2;Temp;Humidity;BMP_temperature;BMP_pressure;BME280_temperature;BME280_humidity;BME280_pressure;Samples;Min_cycle;Max_cycle;Signal;HPM_P1;HPM_P2
2022/06/08 00:01:38;;;;;;;27.97;27.07;;;23.60;97.20;;;;;;5071316;28;20854;-66
2022/06/08 00:04:07;;;;;;;28.07;27.17;;;23.60;97.20;;;;;;5071204;28;20452;-66
2022/06/08 00:06:34;;;;;;;27.77;26.87;;;23.60;97.20;;;;;;5071102;28;20862;-66
2022/06/08 00:09:01;;;;;;;26.40;25.60;;;23.60;97.20;;;;;;5071049;28;20506;-66
2022/06/08 00:11:28;;;;;;;27.63;26.73;;;23.50;97.20;;;;;;5088752;28;20450;-66
2022/06/08 00:13:55;;;;;;;27.90;27.00;;;23.50;97.10;;;;;;5091410;28;20488;-67
2022/06/08 00:16:22;;;;;;;27.17;26.30;;;23.60;97.20;;;;;;5095160;28;20485;-66
2022/06/08 00:18:49;;;;;;;26.80;25.90;;;23.50;97.20;;;;;;5094921;28;20449;-66
2022/06/08 00:21:18;;;;;;;27.33;26.43;;;23.60;97.10;;;;;;5078452;28;20487;-66
2022/06/08 00:23:46;;;;;;;27.47;26.57;;;23.60;97.50;;;;;;5074546;28;20453;-66
2022/06/08 00:26:13;;;;;;;29.13;28.23;;;23.50;97.00;;;;;;5074389;28;20536;-66
2022/06/08 00:28:40;;;;;;;28.00;27.00;;;23.50;97.10;;;;;;5074596;28;20447;-66
2022/06/08 00:31:07;;;;;;;25.60;24.80;;;23.50;97.10;;;;;;5074334;28;20443;-66
2022/06/08 00:33:34;;;;;;;25.73;24.93;;;23.50;97.20;;;;;;5074415;28;20795;-66
2022/06/08 00:36:01;;;;;;;27.43;26.53;;;23.50;97.20;;;;;;5074343;28;20479;-66
2022/06/08 00:38:29;;;;;;;25.70;24.90;;;23.50;97.30;;;;;;5074275;28;20454;-66
2022/06/08 00:41:08;;;;;;;27.77;26.87;;;23.50;97.20;;;;;;5089367;28;20504;-66
2022/06/08 00:43:36;;;;;;;26.03;25.13;;;23.50;97.20;;;;;;5094428;28;20442;-66
2022/06/08 00:46:03;;;;;;;26.23;25.43;;;23.50;97.30;;;;;;5081967;28;20464;-67
2022/06/08 00:48:34;;;;;;;27.83;26.93;;;23.50;97.40;;;;;;5074167;28;20496;-66
2022/06/08 00:51:02;;;;;;;27.80;26.90;;;23.50;97.30;;;;;;5089721;28;20992;-67
2022/06/08 00:53:33;;;;;;;26.93;26.03;;;23.50;97.40;;;;;;5094504;28;20442;-67
2022/06/08 00:56:03;;;;;;;27.20;26.30;;;23.50;97.40;;;;;;5094197;28;20474;-67
2022/06/08 00:58:33;;;;;;;27.63;26.73;;;23.50;97.30;;;;;;5094176;28;20537;-66
2022/06/08 01:00:59;;;;;;;26.13;25.33;;;23.50;97.30;;;;;;5089012;28;20492;-66
2022/06/08 01:03:28;;;;;;;27.00;26.10;;;23.50;97.30;;;;;;5094010;28;20533;-67
2022/06/08 01:05:59;;;;;;;27.60;26.60;;;23.50;97.30;;;;;;5093971;28;20517;-67
2022/06/08 01:08:31;;;;;;;28.67;27.67;;;23.50;97.40;;;;;;5094010;28;20466;-67
2022/06/08 01:11:01;;;;;;;27.47;26.57;;;23.50;97.30;;;;;;5093579;28;20442;-67
2022/06/08 01:13:29;;;;;;;27.30;26.40;;;23.50;97.30;;;;;;5093815;28;20969;-66
2022/06/08 01:15:56;;;;;;;27.93;27.03;;;23.50;97.40;;;;;;5093549;28;20526;-67
2022/06/08 01:18:23;;;;;;;27.30;26.40;;;23.50;97.40;;;;;;5076180;28;20482;-67
2022/06/08 01:20:54;;;;;;;27.63;26.70;;;23.50;97.50;;;;;;5073473;28;20443;-67
2022/06/08 01:23:23;;;;;;;27.50;26.60;;;23.50;97.50;;;;;;5073681;28;20447;-67
2022/06/08 01:26:11;;;;;;;26.63;25.83;;;23.50;97.50;;;;;;5076901;28;20493;-66
2022/06/08 01:28:47;;;;;;;26.47;25.67;;;23.50;97.50;;;;;;5093647;28;20534;-66
2022/06/08 01:31:22;;;;;;;27.70;26.80;;;23.40;97.50;;;;;;5093623;28;20442;-67
2022/06/08 01:34:03;;;;;;;26.53;25.67;;;23.40;97.90;;;;;;5093604;28;20442;-66
2022/06/08 01:36:48;;;;;;;26.00;25.20;;;23.40;97.70;;;;;;5082523;28;20634;-67
2022/06/08 01:39:28;;;;;;;25.90;25.00;;;23.40;97.70;;;;;;5073278;28;20884;-66
2022/06/08 01:42:11;;;;;;;26.77;25.87;;;23.40;97.90;;;;;;5073053;28;20475;-66
2022/06/08 01:47:55;;;;;;;28.87;27.87;;;23.40;98.00;;;;;;5073411;28;20814;-66
2022/06/08 01:50:31;;;;;;;25.80;24.90;;;23.40;97.60;;;;;;5072824;28;20453;-66
2022/06/08 01:53:04;;;;;;;26.53;25.63;;;23.40;97.70;;;;;;5073056;28;20443;-66
2022/06/08 01:55:42;;;;;;;26.27;25.37;;;23.40;98.10;;;;;;5073402;28;20455;-67
2022/06/08 01:58:13;;;;;;;25.30;24.43;;;23.40;97.70;;;;;;5072822;28;20915;-67
2022/06/08 02:00:46;;;;;;;25.73;24.83;;;23.40;98.00;;;;;;5072632;28;20816;-66
2022/06/08 02:03:20;;;;;;;24.27;23.50;;;23.40;97.80;;;;;;5072808;28;20449;-67
2022/06/08 02:05:55;;;;;;;25.70;24.90;;;23.40;98.00;;;;;;5075910;28;20526;-67
2022/06/08 02:08:31;;;;;;;25.63;24.70;;;23.40;97.70;;;;;;5093137;28;20524;-67
2022/06/08 02:11:08;;;;;;;26.53;25.73;;;23.40;97.70;;;;;;5092700;28;20474;-67
2022/06/08 02:13:38;;;;;;;25.90;25.10;;;23.40;97.70;;;;;;5092722;28;20525;-66
2022/06/08 02:16:10;;;;;;;26.33;25.43;;;23.30;97.70;;;;;;5091305;28;20923;-68
2022/06/08 02:18:41;;;;;;;25.70;24.90;;;23.30;97.70;;;;;;5092753;28;20482;-66
2022/06/08 02:21:12;;;;;;;25.30;24.50;;;23.40;97.80;;;;;;5092809;28;20478;-67
2022/06/08 02:23:44;;;;;;;25.90;25.10;;;23.40;97.70;;;;;;5092507;28;20470;-66
2022/06/08 02:26:18;;;;;;;26.10;25.20;;;23.40;97.60;;;;;;5072276;28;20491;-66
2022/06/08 02:28:49;;;;;;;27.33;26.43;;;23.40;98.00;;;;;;5072254;28;20525;-67
2022/06/08 02:31:20;;;;;;;26.13;25.33;;;23.30;97.70;;;;;;5072121;28;20538;-66
2022/06/08 02:36:40;;;;;;;26.30;25.50;;;23.30;97.70;;;;;;5071970;28;20892;-66
2022/06/08 02:39:12;;;;;;;26.27;25.37;;;23.30;97.70;;;;;;5071323;28;20531;-67
2022/06/08 02:41:43;;;;;;;27.53;26.63;;;23.30;97.70;;;;;;5071764;28;20997;-66
2022/06/08 02:44:14;;;;;;;27.63;26.80;;;23.30;97.70;;;;;;5077488;28;20873;-67
2022/06/08 02:46:47;;;;;;;26.90;26.00;;;23.30;97.80;;;;;;5092096;28;20472;-68
2022/06/08 02:49:15;;;;;;;26.80;26.00;;;23.30;97.80;;;;;;5092161;28;20481;-67
2022/06/08 02:51:44;;;;;;;26.37;25.57;;;23.30;97.80;;;;;;5091366;28;20488;-66
2022/06/08 02:54:15;;;;;;;28.00;27.10;;;23.30;97.80;;;;;;5091438;28;20446;-67
2022/06/08 02:57:01;;;;;;;28.57;27.57;;;23.30;97.80;;;;;;5071602;28;20515;-67
2022/06/08 02:59:37;;;;;;;27.97;27.07;;;23.30;98.10;;;;;;5071905;28;20478;-67
2022/06/08 03:02:11;;;;;;;27.50;26.60;;;23.30;97.80;;;;;;5086617;28;20880;-66
2022/06/08 03:04:42;;;;;;;27.23;26.43;;;23.30;97.80;;;;;;5091956;28;20438;-67
2022/06/08 03:07:15;;;;;;;26.57;25.77;;;23.30;97.80;;;;;;5091825;28;20465;-67
2022/06/08 03:09:44;;;;;;;27.93;27.13;;;23.30;97.70;;;;;;5091798;28;20481;-67
2022/06/08 03:12:19;;;;;;;26.90;26.10;;;23.30;97.80;;;;;;5076066;28;20455;-67
2022/06/08 03:14:48;;;;;;;28.50;27.50;;;23.30;97.70;;;;;;5071519;28;20542;-67
2022/06/08 03:17:16;;;;;;;29.33;28.33;;;23.30;97.70;;;;;;5074257;28;20483;-67
2022/06/08 03:19:44;;;;;;;27.53;26.70;;;23.30;97.80;;;;;;5076679;28;20474;-66
2022/06/08 03:22:14;;;;;;;29.60;28.70;;;23.30;97.70;;;;;;5091797;28;20980;-67
2022/06/08 03:24:41;;;;;;;28.93;28.03;;;23.30;97.70;;;;;;5080550;28;20452;-66
2022/06/08 03:27:08;;;;;;;28.30;27.40;;;23.30;97.70;;;;;;5076158;28;20462;-67
2022/06/08 03:29:37;;;;;;;28.30;27.40;;;23.30;97.70;;;;;;5075626;28;20471;-67
2022/06/08 03:32:05;;;;;;;27.00;26.20;;;23.20;97.60;;;;;;5090280;28;20477;-67
2022/06/08 03:34:33;;;;;;;28.23;27.40;;;23.30;97.80;;;;;;5095304;28;20489;-67
2022/06/08 03:37:00;;;;;;;26.97;26.17;;;23.30;97.90;;;;;;5095773;28;20490;-67
2022/06/08 03:39:27;;;;;;;27.53;26.63;;;23.30;97.70;;;;;;5095389;28;20438;-67
2022/06/08 03:41:54;;;;;;;26.87;25.97;;;23.20;97.70;;;;;;5078399;28;20483;-68
2022/06/08 03:44:21;;;;;;;28.50;27.50;;;23.30;97.70;;;;;;5091621;28;20453;-69
2022/06/08 03:46:54;;;;;;;30.10;29.10;;;23.30;97.50;;;;;;5091994;28;20541;-68
2022/06/08 03:49:23;;;;;;;29.97;28.97;;;23.30;97.70;;;;;;5092596;28;20485;-67
2022/06/08 03:51:51;;;;;;;28.83;27.83;;;23.20;97.60;;;;;;5079572;28;20453;-68
2022/06/08 03:54:20;;;;;;;30.70;29.70;;;23.20;98.00;;;;;;5075332;28;20530;-68
2022/06/08 03:56:51;;;;;;;29.70;28.80;;;23.20;97.80;;;;;;5075367;28;20618;-69
2022/06/08 03:59:18;;;;;;;31.83;30.73;;;23.20;97.90;;;;;;5075681;28;20537;-67
2022/06/08 04:01:46;;;;;;;31.87;30.67;;;23.20;97.60;;;;;;5090021;28;20477;-68
2022/06/08 04:04:14;;;;;;;34.27;32.77;;;23.20;97.60;;;;;;5096207;28;20529;-68
2022/06/08 04:06:42;;;;;;;38.13;36.47;;;23.30;98.90;;;;;;5095676;28;20549;-69
2022/06/08 04:09:10;;;;;;;36.27;34.27;;;23.30;99.90;;;;;;5095298;28;20457;-67
2022/06/08 04:11:37;;;;;;;34.87;33.47;;;23.30;99.90;;;;;;5081284;28;20475;-70
2022/06/08 04:14:03;;;;;;;32.97;31.63;;;23.30;99.90;;;;;;5075898;28;20439;-70
2022/06/08 04:16:30;;;;;;;36.30;34.40;;;23.30;99.90;;;;;;5076735;28;20498;-67
2022/06/08 04:18:58;;;;;;;37.97;36.37;;;23.30;99.90;;;;;;5094898;28;21058;-67
2022/06/08 04:21:26;;;;;;;34.87;33.67;;;23.30;99.90;;;;;;5085486;28;20538;-67
2022/06/08 04:23:53;;;;;;;34.83;33.60;;;23.30;99.90;;;;;;5074536;28;20447;-68
2022/06/08 04:26:21;;;;;;;35.43;33.93;;;23.30;99.90;;;;;;5074313;28;20477;-67
2022/06/08 04:28:48;;;;;;;35.30;33.90;;;23.30;99.90;;;;;;5074419;28;20535;-68
2022/06/08 04:31:16;;;;;;;35.00;33.70;;;23.30;99.90;;;;;;5073972;28;20534;-67
2022/06/08 04:33:43;;;;;;;35.23;33.67;;;23.30;99.90;;;;;;5074354;28;20534;-67
2022/06/08 04:36:10;;;;;;;36.80;35.40;;;23.30;99.90;;;;;;5074211;28;20608;-67
2022/06/08 04:38:39;;;;;;;39.50;37.70;;;23.30;99.90;;;;;;5074323;28;20565;-67
2022/06/08 04:41:07;;;;;;;35.93;34.53;;;23.30;99.90;;;;;;5074121;28;20535;-67
2022/06/08 04:43:34;;;;;;;37.57;35.90;;;23.30;99.90;;;;;;5074159;28;20450;-67
2022/06/08 04:46:01;;;;;;;35.27;33.97;;;23.30;99.90;;;;;;5074098;28;20526;-67
2022/06/08 04:48:28;;;;;;;34.07;32.87;;;23.30;99.90;;;;;;5074079;28;20899;-67
2022/06/08 04:50:55;;;;;;;33.60;32.40;;;23.30;99.90;;;;;;5073800;28;20452;-68
2022/06/08 04:53:22;;;;;;;34.87;33.43;;;23.30;99.90;;;;;;5074096;28;20444;-67
2022/06/08 04:55:50;;;;;;;36.20;34.50;;;23.30;99.90;;;;;;5073823;28;20526;-67
2022/06/08 04:58:20;;;;;;;35.97;34.63;;;23.30;99.90;;;;;;5073847;28;20919;-67
2022/06/08 05:00:47;;;;;;;35.00;33.70;;;23.30;99.90;;;;;;5072740;28;20455;-67
2022/06/08 05:03:14;;;;;;;35.33;33.93;;;23.30;99.90;;;;;;5073831;28;20589;-67
2022/06/08 05:05:42;;;;;;;38.10;36.60;;;23.30;99.90;;;;;;5073851;28;20494;-67
2022/06/08 05:08:09;;;;;;;35.77;34.37;;;23.30;99.90;;;;;;5073708;28;20522;-67
2022/06/08 05:10:38;;;;;;;35.17;33.87;;;23.30;99.90;;;;;;5073450;28;20534;-67
2022/06/08 05:13:08;;;;;;;38.00;36.60;;;23.30;99.90;;;;;;5073746;28;20543;-67
2022/06/08 05:15:37;;;;;;;35.47;34.17;;;23.30;99.90;;;;;;5073541;28;20443;-68
2022/06/08 05:18:05;;;;;;;35.27;34.00;;;23.30;99.90;;;;;;5073426;28;20487;-67
2022/06/08 05:20:33;;;;;;;35.53;34.20;;;23.30;99.90;;;;;;5073090;28;20529;-67
2022/06/08 05:23:00;;;;;;;34.67;33.37;;;23.30;99.90;;;;;;5073386;28;20447;-67
2022/06/08 05:25:29;;;;;;;36.10;34.73;;;23.30;99.90;;;;;;5073399;28;20537;-67
2022/06/08 05:27:56;;;;;;;34.90;33.50;;;23.30;99.90;;;;;;5073316;28;20540;-68
2022/06/08 05:30:26;;;;;;;33.40;32.07;;;23.30;99.90;;;;;;5073260;28;20535;-67
2022/06/08 05:32:54;;;;;;;34.37;32.97;;;23.30;99.90;;;;;;5073268;28;20821;-67
2022/06/08 05:35:23;;;;;;;34.67;33.10;;;23.30;99.90;;;;;;5073243;28;20846;-67
2022/06/08 05:37:50;;;;;;;34.20;33.00;;;23.30;99.90;;;;;;5073024;28;20483;-67
2022/06/08 05:40:17;;;;;;;34.77;33.17;;;23.30;99.90;;;;;;5073000;28;20527;-68
2022/06/08 05:42:43;;;;;;;36.37;34.87;;;23.30;99.90;;;;;;5073028;28;20956;-67
2022/06/08 05:45:17;;;;;;;35.13;33.80;;;23.30;99.90;;;;;;5073071;28;20865;-67
2022/06/08 05:47:46;;;;;;;31.53;30.37;;;23.30;99.80;;;;;;5072959;28;20543;-68
2022/06/08 05:50:13;;;;;;;30.40;29.20;;;23.30;99.70;;;;;;5072684;28;20466;-67
2022/06/08 05:52:40;;;;;;;31.27;29.97;;;23.30;99.60;;;;;;5072868;28;20474;-67
2022/06/08 05:55:09;;;;;;;30.00;28.80;;;23.30;99.50;;;;;;5072821;28;20531;-67
2022/06/08 05:57:36;;;;;;;31.17;29.87;;;23.30;99.50;;;;;;5072651;28;20487;-67
2022/06/08 06:00:05;;;;;;;31.63;30.33;;;23.30;99.30;;;;;;5072569;28;20822;-67
2022/06/08 06:02:32;;;;;;;31.13;29.83;;;23.30;99.30;;;;;;5072729;28;20530;-67
2022/06/08 06:05:00;;;;;;;31.50;30.30;;;23.30;99.20;;;;;;5072727;28;20505;-67
2022/06/08 06:07:27;;;;;;;30.13;28.93;;;23.30;99.10;;;;;;5072459;28;20494;-67
2022/06/08 06:09:54;;;;;;;30.20;29.10;;;23.30;99.10;;;;;;5072307;28;20454;-67
2022/06/08 06:12:21;;;;;;;29.57;28.47;;;23.30;99.00;;;;;;5072412;28;20443;-67
2022/06/08 06:14:48;;;;;;;30.70;29.60;;;23.30;98.90;;;;;;5072350;28;20530;-67
2022/06/08 06:17:14;;;;;;;31.73;30.63;;;23.30;98.80;;;;;;5072108;28;20565;-67
2022/06/08 06:19:41;;;;;;;29.73;28.63;;;23.30;98.70;;;;;;5072093;28;20457;-67
2022/06/08 06:22:10;;;;;;;29.70;28.27;;;23.30;98.70;;;;;;5072175;28;20530;-67
2022/06/08 06:24:37;;;;;;;31.90;30.60;;;23.30;99.10;;;;;;5072309;28;20534;-67
2022/06/08 06:27:05;;;;;;;32.30;30.97;;;23.30;98.60;;;;;;5072110;28;20557;-67
2022/06/08 06:29:32;;;;;;;29.70;28.60;;;23.30;98.60;;;;;;5071946;28;20527;-67
2022/06/08 06:32:01;;;;;;;29.43;28.40;;;23.30;98.90;;;;;;5072074;28;21014;-67
2022/06/08 06:34:29;;;;;;;30.97;29.87;;;23.30;98.50;;;;;;5072104;28;21184;-67
2022/06/08 06:36:58;;;;;;;31.70;30.50;;;23.30;98.40;;;;;;5071980;28;20471;-67
2022/06/08 06:39:27;;;;;;;32.20;30.93;;;23.30;98.30;;;;;;5071845;28;21067;-66
2022/06/08 06:41:55;;;;;;;30.90;29.70;;;23.30;98.30;;;;;;5071970;28;20447;-67
2022/06/08 06:44:23;;;;;;;30.10;29.00;;;23.30;98.30;;;;;;5071964;28;20470;-67
2022/06/08 06:46:50;;;;;;;30.00;28.80;;;23.30;98.20;;;;;;5071802;28;20469;-67
2022/06/08 06:49:17;;;;;;;30.10;28.90;;;23.30;98.20;;;;;;5071776;28;20439;-67
2022/06/08 06:51:43;;;;;;;29.10;28.00;;;23.30;98.50;;;;;;5071625;28;20525;-68
2022/06/08 06:54:12;;;;;;;30.00;28.90;;;23.30;98.10;;;;;;5071827;28;20534;-67
2022/06/08 06:56:40;;;;;;;28.57;27.47;;;23.30;98.10;;;;;;5071775;28;20463;-68
2022/06/08 06:59:07;;;;;;;29.93;28.83;;;23.30;98.10;;;;;;5071652;28;20574;-67
2022/06/08 07:01:34;;;;;;;29.53;28.50;;;23.30;98.00;;;;;;5071502;28;20534;-67
2022/06/08 07:04:02;;;;;;;29.63;28.53;;;23.30;97.90;;;;;;5071571;28;20449;-68
2022/06/08 07:06:29;;;;;;;29.60;28.50;;;23.30;97.90;;;;;;5071589;28;20990;-67
2022/06/08 07:08:59;;;;;;;32.73;31.63;;;23.30;97.90;;;;;;5071595;28;20432;-68
2022/06/08 07:11:39;;;;;;;30.87;29.67;;;23.30;98.20;;;;;;5071360;28;20954;-67
2022/06/08 07:14:12;;;;;;;27.70;26.70;;;23.30;97.80;;;;;;5071610;28;20447;-68
2022/06/08 07:16:39;;;;;;;28.50;27.30;;;23.30;97.80;;;;;;5071422;28;20554;-68
2022/06/08 07:19:08;;;;;;;29.90;28.80;;;23.30;97.70;;;;;;5071473;28;20903;-67
2022/06/08 07:21:35;;;;;;;29.00;27.90;;;23.30;97.70;;;;;;5071299;28;20542;-67
2022/06/08 07:24:02;;;;;;;30.97;29.87;;;23.30;98.00;;;;;;5070913;28;20518;-68
2022/06/08 07:26:29;;;;;;;32.50;31.10;;;23.30;97.60;;;;;;5071634;28;20892;-67
2022/06/08 07:28:57;;;;;;;32.60;31.40;;;23.30;97.60;;;;;;5071342;28;20465;-67
2022/06/08 07:31:26;;;;;;;33.93;32.60;;;23.30;97.60;;;;;;5071108;28;20454;-67
2022/06/08 07:33:54;;;;;;;34.50;33.27;;;23.30;97.60;;;;;;5071234;28;21022;-67
2022/06/08 07:36:21;;;;;;;33.20;32.00;;;23.30;97.50;;;;;;5071303;28;20900;-68
2022/06/08 07:38:48;;;;;;;31.87;30.67;;;23.30;97.50;;;;;;5071187;28;20570;-67
2022/06/08 07:41:15;;;;;;;32.90;31.60;;;23.30;97.50;;;;;;5071051;28;20439;-67
2022/06/08 07:43:42;;;;;;;30.97;29.80;;;23.30;97.50;;;;;;5071235;28;20534;-67
2022/06/08 07:46:09;;;;;;;32.73;31.53;;;23.30;97.40;;;;;;5071110;28;20888;-67
2022/06/08 07:51:22;;;;;;;34.93;33.63;;;23.30;97.30;;;;;;5071104;28;20597;-67
2022/06/08 07:53:48;;;;;;;32.07;30.97;;;23.30;97.70;;;;;;5071202;28;20538;-67
2022/06/08 07:56:16;;;;;;;32.43;31.23;;;23.30;97.60;;;;;;5071145;28;20546;-68
2022/06/08 07:58:43;;;;;;;31.60;30.50;;;23.30;97.60;;;;;;5071157;28;20483;-67
2022/06/08 08:01:10;;;;;;;31.40;30.30;;;23.30;97.60;;;;;;5070797;28;20534;-67
2022/06/08 08:03:38;;;;;;;30.80;29.70;;;23.30;97.20;;;;;;5071020;28;20535;-67
2022/06/08 08:06:07;;;;;;;32.13;30.93;;;23.30;97.20;;;;;;5070962;28;20463;-68
2022/06/08 08:08:34;;;;;;;34.37;33.07;;;23.30;97.10;;;;;;5071058;28;20443;-67
2022/06/08 08:11:01;;;;;;;31.00;29.90;;;23.30;97.50;;;;;;5070808;28;20482;-67
2022/06/08 08:13:28;;;;;;;31.63;30.53;;;23.30;97.40;;;;;;5070899;28;20530;-67
2022/06/08 08:15:55;;;;;;;32.30;31.20;;;23.30;97.10;;;;;;5070723;28;20530;-67
2022/06/08 08:18:21;;;;;;;32.77;31.67;;;23.30;97.00;;;;;;5070917;28;20515;-67
2022/06/08 08:20:50;;;;;;;31.83;30.73;;;23.30;97.10;;;;;;5070741;28;20490;-68
2022/06/08 08:23:17;;;;;;;34.80;33.50;;;23.30;97.00;;;;;;5070857;28;20521;-67
2022/06/08 08:25:44;;;;;;;34.43;33.17;;;23.30;97.00;;;;;;5070827;28;20478;-67
2022/06/08 08:28:11;;;;;;;35.17;33.97;;;23.30;97.00;;;;;;5070840;28;20534;-68
2022/06/08 08:30:37;;;;;;;35.37;34.07;;;23.30;97.00;;;;;;5070564;28;20443;-67
2022/06/08 08:33:05;;;;;;;34.40;33.10;;;23.30;96.90;;;;;;5070940;28;20550;-67
2022/06/08 08:35:31;;;;;;;35.00;33.70;;;23.30;96.90;;;;;;5070715;28;20526;-67
2022/06/08 08:38:00;;;;;;;36.60;35.30;;;23.30;96.90;;;;;;5073779;28;20485;-68
2022/06/08 08:40:39;;;;;;;37.47;36.17;;;23.30;96.80;;;;;;5074124;28;20451;-67
2022/06/08 08:43:09;;;;;;;35.00;33.70;;;23.30;96.80;;;;;;5074278;28;20439;-68
2022/06/08 08:45:45;;;;;;;36.63;35.23;;;23.30;96.80;;;;;;5074167;28;20935;-68
2022/06/08 08:48:27;;;;;;;34.17;32.97;;;23.30;96.80;;;;;;5074200;28;20526;-68
2022/06/08 08:51:02;;;;;;;30.40;29.30;;;23.30;96.70;;;;;;5073829;28;20534;-67
2022/06/08 08:53:40;;;;;;;31.00;29.80;;;23.30;96.70;;;;;;5074057;28;20443;-68
2022/06/08 08:56:14;;;;;;;29.73;28.63;;;23.30;96.70;;;;;;5073963;28;20498;-68
2022/06/08 08:58:45;;;;;;;30.17;29.07;;;23.30;96.70;;;;;;5073971;28;20846;-68
2022/06/08 09:01:18;;;;;;;29.53;28.53;;;23.30;96.70;;;;;;5073660;28;20439;-67
2022/06/08 09:03:47;;;;;;;28.60;27.50;;;23.30;96.70;;;;;;5073930;28;20447;-68
2022/06/08 09:06:16;;;;;;;28.93;27.93;;;23.40;96.70;;;;;;5073689;28;20465;-68
2022/06/08 09:08:47;;;;;;;30.53;29.43;;;23.30;96.60;;;;;;5073776;28;20542;-68
2022/06/08 09:11:17;;;;;;;31.57;30.47;;;23.30;96.60;;;;;;5073496;28;20526;-68
2022/06/08 09:13:49;;;;;;;29.97;28.87;;;23.30;96.50;;;;;;5073814;28;20447;-68
2022/06/08 09:16:35;;;;;;;30.80;29.70;;;23.40;96.60;;;;;;5073925;28;20570;-68
2022/06/08 09:19:19;;;;;;;31.40;30.20;;;23.40;96.50;;;;;;5073560;28;20487;-66
2022/06/08 09:21:46;;;;;;;30.47;29.37;;;23.40;96.50;;;;;;5073386;28;20535;-69
2022/06/08 09:24:28;;;;;;;31.87;30.77;;;23.40;96.50;;;;;;5073374;28;20814;-68
2022/06/08 09:26:57;;;;;;;31.10;29.93;;;23.30;96.50;;;;;;5073421;28;20521;-67
2022/06/08 09:29:29;;;;;;;30.30;29.20;;;23.40;96.50;;;;;;5073262;28;21141;-66
2022/06/08 09:31:57;;;;;;;28.90;27.90;;;23.40;96.50;;;;;;5073332;28;20447;-67
2022/06/08 09:34:25;;;;;;;30.40;29.30;;;23.40;96.40;;;;;;5073315;28;20447;-68
2022/06/08 09:37:10;;;;;;;28.87;27.87;;;23.40;96.40;;;;;;5073177;28;20470;-68
2022/06/08 09:39:40;;;;;;;29.37;28.27;;;23.40;96.40;;;;;;5073063;28;21080;-67
2022/06/08 09:42:24;;;;;;;30.57;29.47;;;23.40;96.30;;;;;;5073072;28;20922;-68
2022/06/08 09:45:00;;;;;;;29.30;28.30;;;23.40;96.60;;;;;;5073116;28;20869;-68
2022/06/08 09:53:25;;;;;;;28.60;27.60;;;23.40;96.20;;;;;;5073250;28;20494;-67
2022/06/08 09:56:07;;;;;;;27.23;26.23;;;23.40;96.10;;;;;;5072846;28;20470;-68
2022/06/08 09:58:53;;;;;;;28.70;27.63;;;23.40;96.10;;;;;;5072726;28;20460;-67
2022/06/08 10:01:28;;;;;;;29.10;28.10;;;23.40;96.30;;;;;;5072666;28;20526;-67
2022/06/08 10:04:12;;;;;;;27.70;26.70;;;23.40;96.30;;;;;;5072697;28;20530;-68
2022/06/08 10:06:47;;;;;;;27.80;26.80;;;23.40;95.80;;;;;;5072674;28;20502;-67
2022/06/08 10:09:23;;;;;;;27.43;26.43;;;23.50;95.80;;;;;;5072656;28;20492;-67
2022/06/08 10:11:59;;;;;;;28.10;27.10;;;23.50;95.70;;;;;;5072477;28;20889;-68
2022/06/08 10:14:42;;;;;;;27.83;26.83;;;23.50;96.00;;;;;;5072401;28;20541;-68
2022/06/08 10:17:16;;;;;;;28.00;26.97;;;23.50;95.70;;;;;;5072168;28;20990;-67
2022/06/08 10:19:54;;;;;;;29.57;28.47;;;23.50;95.70;;;;;;5072287;28;20486;-68
2022/06/08 10:22:21;;;;;;;26.83;25.93;;;23.50;95.70;;;;;;5072351;28;20443;-67
2022/06/08 10:24:55;;;;;;;27.90;26.90;;;23.50;95.70;;;;;;5072220;28;20550;-67
2022/06/08 10:27:29;;;;;;;28.60;27.60;;;23.40;95.60;;;;;;5072253;28;20463;-67
2022/06/08 10:30:06;;;;;;;28.83;27.73;;;23.50;95.60;;;;;;5072072;28;20443;-68
2022/06/08 10:32:36;;;;;;;27.80;26.80;;;23.40;95.60;;;;;;5072123;28;20443;-67
2022/06/08 10:35:17;;;;;;;29.40;28.40;;;23.40;96.00;;;;;;5072174;28;20440;-67
2022/06/08 10:37:45;;;;;;;28.87;27.87;;;23.50;95.60;;;;;;5071973;28;20875;-68
2022/06/08 10:40:19;;;;;;;27.67;26.67;;;23.50;95.70;;;;;;5071717;28;20589;-67
2022/06/08 10:42:47;;;;;;;28.13;27.20;;;23.50;95.60;;;;;;5071931;28;20439;-68
2022/06/08 10:45:45;;;;;;;27.93;26.93;;;23.50;96.00;;;;;;5071920;28;20806;-68
2022/06/08 10:48:49;;;;;;;28.80;27.80;;;23.50;96.00;;;;;;5071987;28;20482;-68
2022/06/08 10:51:37;;;;;;;27.00;26.10;;;23.40;95.90;;;;;;5071606;28;20454;-68
2022/06/08 10:57:37;;;;;;;28.90;27.90;;;23.40;95.60;;;;;;5071816;28;20798;-67
2022/06/08 11:00:51;;;;;;;29.27;28.27;;;23.50;95.70;;;;;;5070901;28;20482;-68
2022/06/08 11:03:48;;;;;;;29.93;28.93;;;23.40;95.70;;;;;;5043964;28;20883;-68
2022/06/08 11:06:48;;;;;;;29.10;28.10;;;23.40;95.60;;;;;;5071743;28;20470;-68
2022/06/08 11:09:20;;;;;;;29.70;28.60;;;23.40;95.70;;;;;;5071668;28;20523;-68
2022/06/08 11:11:49;;;;;;;29.80;28.80;;;23.40;95.70;;;;;;5071553;28;20462;-67
2022/06/08 11:14:31;;;;;;;30.07;29.07;;;23.40;95.60;;;;;;5071565;28;20886;-68
2022/06/08 11:17:02;;;;;;;29.20;28.20;;;23.40;95.70;;;;;;5071288;28;20558;-67
2022/06/08 11:19:34;;;;;;;28.90;27.90;;;23.50;95.70;;;;;;5071302;28;20569;-68
2022/06/08 11:22:06;;;;;;;28.83;27.83;;;23.40;95.70;;;;;;5071476;28;20889;-67
2022/06/08 11:24:36;;;;;;;30.20;29.10;;;23.40;95.60;;;;;;5071510;28;20857;-68
2022/06/08 11:27:30;;;;;;;28.27;27.30;;;23.50;95.70;;;;;;5071307;28;20497;-68
2022/06/08 11:29:59;;;;;;;26.50;25.60;;;23.40;95.60;;;;;;5071318;28;20474;-67
2022/06/08 11:32:39;;;;;;;27.97;27.00;;;23.50;96.00;;;;;;5071279;28;20443;-68
2022/06/08 11:35:46;;;;;;;28.90;27.83;;;23.50;95.60;;;;;;5071459;28;20521;-67
2022/06/08 11:38:32;;;;;;;27.50;26.50;;;23.50;95.70;;;;;;5046375;28;20537;-68
2022/06/08 11:41:22;;;;;;;27.90;27.00;;;23.50;95.60;;;;;;5071236;28;20517;-68
2022/06/08 11:43:51;;;;;;;28.40;27.40;;;23.50;95.60;;;;;;5071262;28;20479;-68
2022/06/08 11:46:24;;;;;;;29.80;28.80;;;23.40;95.90;;;;;;5071119;28;20463;-68
2022/06/08 11:48:52;;;;;;;29.63;28.63;;;23.40;95.60;;;;;;5071179;28;20538;-67
2022/06/08 11:51:35;;;;;;;29.93;28.93;;;23.50;95.60;;;;;;5070913;28;20447;-66
2022/06/08 11:54:17;;;;;;;31.67;30.57;;;23.50;95.60;;;;;;5071284;28;20505;-68
2022/06/08 11:56:57;;;;;;;29.80;28.80;;;23.50;96.00;;;;;;5071149;28;20463;-68
2022/06/08 11:59:25;;;;;;;33.30;32.20;;;23.50;95.60;;;;;;5071061;28;20506;-67
2022/06/08 12:01:54;;;;;;;31.53;30.43;;;23.50;95.60;;;;;;5070939;28;20442;-69
2022/06/08 12:04:25;;;;;;;30.30;29.30;;;23.50;95.60;;;;;;5071011;28;20448;-68
2022/06/08 12:06:56;;;;;;;32.60;31.40;;;23.50;95.60;;;;;;5070973;28;20478;-68
2022/06/08 12:09:26;;;;;;;33.70;32.40;;;23.50;95.50;;;;;;5070994;28;20755;-68
2022/06/08 12:11:55;;;;;;;29.90;28.80;;;23.50;95.90;;;;;;5074064;28;20481;-68
2022/06/08 12:14:27;;;;;;;30.90;29.80;;;23.40;95.50;;;;;;5074816;28;20874;-68
2022/06/08 12:16:58;;;;;;;30.60;29.60;;;23.50;95.50;;;;;;5074511;28;20513;-68
2022/06/08 12:19:27;;;;;;;28.80;27.80;;;23.40;95.40;;;;;;5074498;28;21010;-67
2022/06/08 12:22:15;;;;;;;30.40;29.30;;;23.50;95.60;;;;;;5074565;28;20538;-68
2022/06/08 12:24:42;;;;;;;29.87;28.87;;;23.50;95.50;;;;;;5074521;28;20534;-67
2022/06/08 12:27:21;;;;;;;29.50;28.50;;;23.50;95.50;;;;;;5074466;28;20467;-68
2022/06/08 12:29:56;;;;;;;30.10;29.00;;;23.50;95.50;;;;;;5074319;28;20446;-67
2022/06/08 12:32:27;;;;;;;30.37;29.37;;;23.50;95.50;;;;;;5074457;28;20860;-67
2022/06/08 12:35:27;;;;;;;31.30;30.20;;;23.50;95.50;;;;;;5074489;28;20839;-67
2022/06/08 12:38:20;;;;;;;30.10;29.10;;;23.50;95.50;;;;;;5074274;28;20467;-66
2022/06/08 12:41:11;;;;;;;29.87;28.77;;;23.50;95.50;;;;;;5074002;28;20515;-67
2022/06/08 12:43:42;;;;;;;30.10;29.10;;;23.50;95.50;;;;;;5074234;28;20450;-67
2022/06/08 12:46:24;;;;;;;30.37;29.27;;;23.50;95.50;;;;;;5074074;28;20497;-68
2022/06/08 12:49:04;;;;;;;30.13;29.03;;;23.50;95.50;;;;;;5074368;28;20804;-67
2022/06/08 12:51:38;;;;;;;31.33;30.23;;;23.50;95.50;;;;;;5073867;28;20454;-68
2022/06/08 12:54:14;;;;;;;30.10;29.10;;;23.50;95.50;;;;;;5074140;28;20442;-68
2022/06/08 12:56:42;;;;;;;28.67;27.67;;;23.50;95.50;;;;;;5073975;28;20454;-68
2022/06/08 12:59:09;;;;;;;29.07;28.07;;;23.50;95.40;;;;;;5073887;28;20958;-68
2022/06/08 13:01:36;;;;;;;27.70;26.70;;;23.50;95.40;;;;;;5073687;28;20994;-69
2022/06/08 13:04:03;;;;;;;28.83;27.83;;;23.50;95.50;;;;;;5073993;28;20873;-68
2022/06/08 13:06:31;;;;;;;29.30;28.27;;;23.50;95.50;;;;;;5073753;28;20463;-69
2022/06/08 13:08:58;;;;;;;30.67;29.57;;;23.50;95.50;;;;;;5075153;28;20830;-68